createdAt,value
2022-08-17T00:00:00.326Z,99754.13
2022-08-17T00:04:56.695Z,99745.91
2022-08-17T00:09:53.109Z,99742.56
2022-08-17T00:14:49.953Z,99744.22
2022-08-17T00:19:46.601Z,99734.69
2022-08-17T00:24:42.954Z,99738.81
2022-08-17T00:29:39.328Z,99731.00
2022-08-17T00:34:35.658Z,99730.84
2022-08-17T00:39:32.055Z,99739.28
2022-08-17T00:44:31.241Z,99728.28
2022-08-17T00:49:27.766Z,99727.63
2022-08-17T00:54:29.770Z,99736.53
2022-08-17T00:59:33.026Z,99721.97
2022-08-17T01:04:31.381Z,99727.81
2022-08-17T01:09:27.921Z,99722.06
2022-08-17T01:14:26.101Z,99719.53
2022-08-17T01:19:26.632Z,99716.13
2022-08-17T01:24:23.374Z,99724.75
2022-08-17T01:29:21.617Z,99718.41
2022-08-17T01:34:18.906Z,99727.50
2022-08-17T01:39:34.138Z,99727.50
2022-08-17T01:44:30.637Z,99719.34
2022-08-17T01:49:27.033Z,99723.66
2022-08-17T01:54:25.244Z,99736.53
2022-08-17T01:59:21.766Z,99731.47
2022-08-17T02:04:18.326Z,99718.09
2022-08-17T02:09:16.784Z,99735.69
2022-08-17T02:14:14.211Z,99732.69
2022-08-17T02:19:15.537Z,99737.44
2022-08-17T02:24:17.271Z,99734.75
2022-08-17T02:29:15.129Z,99729.00
2022-08-17T02:34:11.671Z,99725.63
2022-08-17T02:39:10.477Z,99726.53
2022-08-17T02:44:07.204Z,99729.69
2022-08-17T02:49:04.956Z,99731.69
2022-08-17T02:54:35.772Z,99733.38
2022-08-17T02:59:17.522Z,99733.75
2022-08-17T03:04:14.012Z,99721.66
2022-08-17T03:09:10.339Z,99725.69
2022-08-17T03:14:06.675Z,99717.16
2022-08-17T03:19:03.064Z,99715.53
2022-08-17T03:23:59.653Z,99716.97
2022-08-17T03:28:55.970Z,99709.25
2022-08-17T03:33:52.509Z,99720.50
2022-08-17T03:38:48.838Z,99714.31
2022-08-17T03:43:47.426Z,99725.88
2022-08-17T03:49:02.362Z,99726.53
2022-08-17T03:54:18.350Z,99722.47
2022-08-17T03:59:21.171Z,99728.88
2022-08-17T04:04:20.150Z,99731.88
2022-08-17T04:09:24.050Z,99728.00
2022-08-17T04:14:20.739Z,99740.59
2022-08-17T04:19:17.170Z,99748.63
2022-08-17T04:24:13.573Z,99741.59
2022-08-17T04:29:10.012Z,99747.44
2022-08-17T04:34:06.637Z,99756.00
2022-08-17T04:39:03.698Z,99749.25
2022-08-17T04:44:01.244Z,99748.53
2022-08-17T04:48:57.903Z,99752.53
2022-08-17T04:53:57.287Z,99758.84
2022-08-17T04:58:57.624Z,99763.91
2022-08-17T05:03:56.801Z,99771.66
2022-08-17T05:08:54.163Z,99769.31
2022-08-17T05:13:50.638Z,99777.72
2022-08-17T05:18:47.612Z,99788.09
2022-08-17T05:23:45.055Z,99783.47
2022-08-17T05:28:47.938Z,99776.44
2022-08-17T05:33:46.243Z,99771.16
2022-08-17T05:38:42.887Z,99784.22
2022-08-17T05:43:41.938Z,99772.31
2022-08-17T05:48:41.406Z,99778.81
2022-08-17T05:54:00.538Z,99783.25
2022-08-17T05:59:23.820Z,99786.53
2022-08-17T06:05:00.702Z,99785.91
2022-08-17T06:10:02.998Z,99781.25
2022-08-17T06:15:19.524Z,99781.09
2022-08-17T06:20:16.254Z,99773.03
2022-08-17T06:25:14.768Z,99772.56
2022-08-17T06:30:20.211Z,99772.97
2022-08-17T06:35:28.888Z,99778.38
2022-08-17T06:40:39.833Z,99776.44
2022-08-17T06:45:49.017Z,99769.06
2022-08-17T06:50:53.609Z,99773.22
2022-08-17T06:55:59.782Z,99772.94
2022-08-17T07:00:59.097Z,99772.81
2022-08-17T07:06:04.406Z,99780.97
2022-08-17T07:11:06.891Z,99782.97
2022-08-17T07:16:20.310Z,99789.88
2022-08-17T07:21:26.760Z,99790.75
2022-08-17T07:26:24.193Z,99778.84
2022-08-17T07:31:20.924Z,99795.28
2022-08-17T07:36:29.622Z,99802.34
2022-08-17T07:41:27.648Z,99802.31
2022-08-17T07:47:11.296Z,99805.06
2022-08-17T07:52:50.692Z,99805.06
2022-08-17T07:57:55.060Z,99815.41
2022-08-17T08:03:03.624Z,99821.84
2022-08-17T08:08:05.864Z,99815.09
2022-08-17T08:13:20.608Z,99810.97
2022-08-17T08:18:38.725Z,99810.03
2022-08-17T08:23:57.368Z,99803.50
2022-08-17T08:29:09.361Z,99805.44
2022-08-17T08:34:55.867Z,99811.84
2022-08-17T08:39:57.169Z,99812.25
2022-08-17T08:45:06.704Z,99820.28
2022-08-17T08:50:30.233Z,99814.06
2022-08-17T08:55:52.163Z,99826.69
2022-08-17T09:00:53.823Z,99826.41
2022-08-17T09:06:38.583Z,99821.56
2022-08-17T09:12:01.803Z,99833.25
2022-08-17T09:17:14.429Z,99831.53
2022-08-17T09:22:31.362Z,99819.19
2022-08-17T09:27:34.994Z,99820.25
2022-08-17T09:32:39.087Z,99810.28
2022-08-17T09:37:51.214Z,99817.81
2022-08-17T09:42:52.384Z,99814.34
2022-08-17T09:48:24.938Z,99808.84
2022-08-17T09:53:23.884Z,99809.75
2022-08-17T09:58:33.436Z,99812.91
2022-08-17T10:03:55.741Z,99807.41
2022-08-17T10:09:08.159Z,99796.53
2022-08-17T10:14:36.583Z,99790.38
2022-08-17T10:19:39.560Z,99798.44
2022-08-17T10:25:22.899Z,99782.00
2022-08-17T10:30:28.284Z,99783.19
2022-08-17T10:35:43.740Z,99782.13
2022-08-17T10:40:52.058Z,99784.94
2022-08-17T10:46:10.616Z,99783.59
2022-08-17T10:51:48.020Z,99786.66
2022-08-17T10:56:47.454Z,99777.13
2022-08-17T11:02:01.230Z,99776.16
2022-08-17T11:07:30.454Z,99767.56
2022-08-17T11:12:37.584Z,99760.13
2022-08-17T11:17:41.319Z,99763.28
2022-08-17T11:23:06.088Z,99776.13
2022-08-17T11:28:13.894Z,99785.66
2022-08-17T11:33:32.968Z,99788.00
2022-08-17T11:39:03.170Z,99771.63
2022-08-17T11:44:25.238Z,99773.31
2022-08-17T11:50:00.588Z,99775.44
2022-08-17T11:55:17.703Z,99781.09
2022-08-17T12:00:49.758Z,99773.94
2022-08-17T12:05:46.178Z,99786.38
2022-08-17T12:10:52.084Z,99795.53
2022-08-17T12:15:52.679Z,99780.16
2022-08-17T12:21:12.123Z,99782.66
2022-08-17T12:26:20.766Z,99779.84
2022-08-17T12:31:25.776Z,99772.28
2022-08-17T12:36:24.764Z,99765.19
2022-08-17T12:41:43.281Z,99770.66
2022-08-17T12:47:00.380Z,99780.34
2022-08-17T12:52:25.581Z,99776.44
2022-08-17T12:57:54.631Z,99774.06
2022-08-17T13:02:55.044Z,99779.44
2022-08-17T13:07:53.300Z,99783.44
2022-08-17T13:12:51.331Z,99792.94
2022-08-17T13:17:56.888Z,99784.84
2022-08-17T13:22:57.350Z,99778.41
2022-08-17T13:27:55.107Z,99782.00
2022-08-17T13:32:53.792Z,99781.44
2022-08-17T13:38:08.802Z,99789.41
2022-08-17T13:43:05.448Z,99778.97
2022-08-17T13:48:16.919Z,99771.31
2022-08-17T13:53:19.049Z,99763.97
2022-08-17T13:58:21.336Z,99763.19
2022-08-17T14:03:18.730Z,99744.03
2022-08-17T14:08:17.235Z,99760.00
2022-08-17T14:13:15.124Z,99758.34
2022-08-17T14:18:11.542Z,99754.47
2022-08-17T14:23:08.303Z,99748.03
2022-08-17T14:28:06.956Z,99733.66
2022-08-17T14:33:03.417Z,99734.53
2022-08-17T14:38:00.370Z,99745.03
2022-08-17T14:42:57.723Z,99751.38
2022-08-17T14:47:54.089Z,99745.97
2022-08-17T14:52:52.287Z,99756.13
2022-08-17T14:57:48.593Z,99752.47
2022-08-17T15:02:53.803Z,99740.91
2022-08-17T15:07:50.562Z,99735.81
2022-08-17T15:12:47.417Z,99730.44
2022-08-17T15:17:45.881Z,99731.91
2022-08-17T15:22:43.715Z,99724.06
2022-08-17T15:27:40.383Z,99721.41
2022-08-17T15:32:39.320Z,99712.44
2022-08-17T15:37:36.355Z,99718.63
2022-08-17T15:42:33.911Z,99715.00
2022-08-17T15:47:30.277Z,99699.09
2022-08-17T15:52:29.701Z,99688.09
2022-08-17T15:57:27.341Z,99695.94
2022-08-17T16:03:13.738Z,99688.44
2022-08-17T16:07:45.038Z,99685.47
2022-08-17T16:12:45.498Z,99679.28
2022-08-17T16:17:42.212Z,99675.72
2022-08-17T16:22:42.089Z,99679.72
2022-08-17T16:27:38.513Z,99674.19
2022-08-17T16:32:34.889Z,99677.19
2022-08-17T16:37:31.199Z,99670.81
2022-08-17T16:42:33.349Z,99664.22
2022-08-17T16:47:30.276Z,99665.03
2022-08-17T16:52:32.489Z,99666.75
2022-08-17T16:57:29.988Z,99670.59
2022-08-17T17:02:32.643Z,99682.16
2022-08-17T17:07:42.909Z,99691.56
2022-08-17T17:13:03.852Z,99686.28
2022-08-17T17:18:07.323Z,99691.50
2022-08-17T17:23:39.423Z,99699.19
2022-08-17T17:28:56.046Z,99701.16
2022-08-17T17:34:00.359Z,99696.53
2022-08-17T17:39:04.951Z,99705.25
2022-08-17T17:44:11.691Z,99701.72
2022-08-17T17:49:11.256Z,99712.50
2022-08-17T17:54:18.343Z,99735.94
2022-08-17T17:59:43.779Z,99720.03
2022-08-17T18:04:53.616Z,99733.19
2022-08-17T18:10:19.626Z,99736.72
2022-08-17T18:15:31.634Z,99742.81
2022-08-17T18:20:36.449Z,99731.53
2022-08-17T18:25:50.489Z,99736.28
2022-08-17T18:31:07.827Z,99753.56
2022-08-17T18:36:05.886Z,99772.38
2022-08-17T18:41:19.283Z,99791.56
2022-08-17T18:46:28.988Z,99789.56
2022-08-17T18:51:42.618Z,99781.69
2022-08-17T18:56:48.706Z,99783.69
2022-08-17T19:01:59.900Z,99793.97
2022-08-17T19:07:16.705Z,99789.09
2022-08-17T19:12:27.295Z,99786.66
2022-08-17T19:17:32.234Z,99794.09
2022-08-17T19:22:43.848Z,99798.09
2022-08-17T19:27:50.092Z,99790.25
2022-08-17T19:32:46.777Z,99787.78
2022-08-17T19:37:58.962Z,99781.56
2022-08-17T19:43:01.628Z,99785.34
2022-08-17T19:48:12.342Z,99788.75
2022-08-17T19:53:41.966Z,99785.22
2022-08-17T19:59:01.203Z,99788.81
2022-08-17T20:04:12.854Z,99794.22
2022-08-17T20:09:34.611Z,99807.13
2022-08-17T20:14:39.618Z,99812.16
2022-08-17T20:20:19.866Z,99815.50
2022-08-17T20:25:30.106Z,99821.34
2022-08-17T20:30:35.027Z,99834.66
2022-08-17T20:35:37.615Z,99827.16
2022-08-17T20:40:35.589Z,99820.91
2022-08-17T20:45:51.512Z,99821.25
2022-08-17T20:50:56.265Z,99822.69
2022-08-17T20:55:55.495Z,99824.94
2022-08-17T21:00:57.840Z,99839.53
2022-08-17T21:06:12.568Z,99848.19
2022-08-17T21:12:03.067Z,99847.47
2022-08-17T21:17:07.858Z,99859.66
2022-08-17T21:22:46.412Z,99861.78
2022-08-17T21:28:10.664Z,99866.34
2022-08-17T21:33:20.264Z,99874.06
2022-08-17T21:38:20.563Z,99870.16
2022-08-17T21:43:23.839Z,99874.28
2022-08-17T21:48:23.960Z,99873.78
2022-08-17T21:53:33.155Z,99870.75
2022-08-17T21:58:40.249Z,99889.19
2022-08-17T22:03:38.472Z,99893.44
2022-08-17T22:08:34.997Z,99902.25
2022-08-17T22:13:32.372Z,99906.66
2022-08-17T22:18:28.950Z,99920.19
2022-08-17T22:23:45.198Z,99934.44
2022-08-17T22:28:52.768Z,99944.66
2022-08-17T22:33:52.114Z,99947.22
2022-08-17T22:38:50.066Z,99944.97
2022-08-17T22:43:46.809Z,99961.38
2022-08-17T22:48:59.267Z,99952.41
2022-08-17T22:54:30.671Z,99965.44
2022-08-17T22:59:50.226Z,99974.00
2022-08-17T23:04:51.350Z,99984.50
2022-08-17T23:09:47.706Z,99976.63
2022-08-17T23:14:45.987Z,99959.81
2022-08-17T23:19:42.546Z,99974.00
2022-08-17T23:24:43.363Z,99991.16
2022-08-17T23:29:42.049Z,99985.38
2022-08-17T23:34:39.656Z,99980.09
2022-08-17T23:39:36.129Z,99968.47
2022-08-17T23:44:33.743Z,99953.84
2022-08-17T23:49:31.987Z,99959.31
2022-08-17T23:54:43.491Z,99958.09
2022-08-17T23:59:39.997Z,99964.94
